Latest Coastal Weather Observations for Onslow Airport

IDW60701

Issued at 10:02 am WST Saturday 28 February 2015 (issued every 10 minutes, with the page automatically refreshed every 10 minutes)

About coastal observations | Map of coastal stations | Coastal observations for WA | Marine services | Other Formats
Station Details ID: 005017 Name: ONSLOW AIRPORT Lat: -21.67 Lon: 115.11 Height: 10.5 m
Data from the previous 72 hours. | See also: Recent months at Onslow Airport
Date/Time
WST
Temp

°C
Wind Pressure Rain
since 9am
mm
Weather Cloud Vis
km
Sea
Height
m
Swell
Dir
 
Speed
knots
Gust
knots
hPa Trend Height
m
Period
s
Dir
28/10:00am 31.5 SW 6 8 1008.0 - 0.0 - - - - - - -
28/09:30am 30.9 SW 7 11 1008.1 - 0.0 - - - - - - -
28/09:00am 29.8 SW 6 10 1008.2 - 0.0 - - - - - - -
28/08:30am 28.9 SW 9 12 1008.0 - 0.0 - - - - - - -
28/08:00am 27.9 SW 9 13 1007.9 - 0.0 - - - - - - -
28/07:30am 26.9 SW 9 11 1007.7 - 0.0 - - - - - - -
28/07:00am 26.5 SW 11 12 1007.5 - 0.0 - - - - - - -
28/06:30am 26.1 SW 9 11 1007.1 - 0.0 - - - - - - -
28/06:00am 26.1 WSW 7 9 1007.0 - 0.0 - - - - - - -
28/05:30am 26.5 WSW 8 10 1007.0 - 0.0 - - - - - - -
28/05:00am 26.6 SW 8 10 1006.9 - 0.0 - - - - - - -
28/04:30am 26.6 SW 10 13 1006.5 - 0.0 - - - - - - -
28/04:00am 26.5 SW 11 13 1006.4 - 0.0 - - - - - - -
28/03:30am 26.5 WSW 9 11 1006.3 - 0.0 - - - - - - -
28/03:00am 26.4 WSW 8 11 1006.2 - 0.0 - - - - - - -
28/02:30am 26.4 WSW 8 10 1006.5 - 0.0 - - - - - - -
28/02:00am 26.6 WSW 9 13 1006.4 - 0.0 - - - - - - -
28/01:30am 27.0 WSW 8 11 1006.6 - 0.0 - - - - - - -
28/01:00am 27.3 WSW 10 13 1006.8 - 0.0 - - - - - - -
28/12:30am 27.8 WSW 11 15 1007.0 - 0.0 - - - - - - -
28/12:00am 27.8 SW 11 16 1007.2 - 0.0 - - - - - - -
 
Date/Time
WST
Temp

°C
Wind Pressure Rain
since 9am
mm
Weather Cloud Vis
km
Sea
Height
m
Swell
Dir
 
Speed
knots
Gust
knots
hPa Trend Height
m
Period
s
Dir
27/11:30pm 27.9 SW 12 15 1007.5 - 0.0 - - - - - - -
27/11:00pm 27.8 WSW 10 14 1007.6 - 0.0 - - - - - - -
27/10:30pm 28.0 WSW 11 15 1007.7 - 0.0 - - - - - - -
27/10:00pm 28.4 WSW 13 17 1007.4 - 0.0 - - - - - - -
27/09:30pm 29.2 WSW 13 19 1007.2 - 0.0 - - - - - - -
27/09:00pm 29.6 WSW 11 15 1007.0 - 0.0 - - - - - - -
27/08:30pm 29.3 W 10 13 1006.5 - 0.0 - - - - - - -
27/08:00pm 29.5 W 13 16 1006.1 - 0.0 - - - - - - -
27/07:30pm 29.7 W 13 17 1005.5 - 0.0 - - - - - - -
27/07:00pm 29.6 W 14 18 1005.1 - 0.0 - - - - - - -
27/06:30pm 29.4 W 18 22 1004.9 - 0.0 - - - - - - -
27/06:00pm 29.7 W 16 21 1004.9 - 0.0 - - - - - - -
27/05:30pm 30.0 W 20 24 1004.6 - 0.0 - - - - - - -
27/05:00pm 30.6 W 21 26 1004.2 - 0.0 - - - - - - -
27/04:30pm 30.9 WNW 20 25 1004.2 - 0.0 - - - - - - -
27/04:00pm 30.9 WNW 20 25 1004.4 - 0.0 - - - - - - -
27/03:30pm 30.4 WNW 20 25 1004.6 - 0.0 - - - - - - -
27/03:00pm 30.1 WNW 20 25 1005.0 - 0.0 - - - - - - -
27/02:30pm 30.5 WNW 20 26 1005.0 - 0.0 - - - - - - -
27/02:00pm 32.0 WNW 20 25 1005.3 - 0.0 - - - - - - -
27/01:30pm 31.1 WNW 21 25 1005.6 - 0.0 - - - - - - -
27/01:00pm 31.0 WNW 21 27 1006.1 - 0.0 - - - - - - -
27/12:30pm 31.4 WNW 21 24 1006.4 - 0.0 - - - - - - -
27/12:00pm 32.6 WNW 17 22 1006.9 - 0.0 - - - - - - -
27/11:30am 31.6 WNW 18 22 1007.3 - 0.0 - - - - - - -
27/11:00am 32.8 W 15 18 1007.5 - 0.0 - - - - - - -
27/10:30am 31.6 WNW 12 17 1007.8 - 0.0 - - - - - - -
27/10:00am 31.1 SW 9 12 1008.2 - 0.0 - - - - - - -
27/09:30am 29.7 SW 9 13 1008.5 - 0.0 - - - - - - -
27/09:00am 29.1 SW 12 14 1008.4 - 0.0 - - - - - - -
27/08:30am 27.8 SW 12 15 1008.4 - 0.0 - - - - - - -
27/08:00am 27.2 SW 12 15 1008.2 - 0.0 - - - - - - -
27/07:30am 26.0 SW 12 16 1008.0 - 0.0 - - - - - - -
27/07:00am 25.4 SW 11 14 1007.9 - 0.0 - - - - - - -
27/06:30am 25.0 SW 11 13 1007.4 - 0.0 - - - - - - -
27/06:00am 24.8 SW 10 12 1007.1 - 0.0 - - - - - - -
27/05:30am 24.5 WSW 7 10 1007.1 - 0.0 - - - - - - -
27/05:00am 24.9 WSW 8 10 1007.1 - 0.0 - - - - - - -
27/04:30am 25.1 SW 11 13 1006.5 - 0.0 - - - - - - -
27/04:00am 25.1 SW 9 11 1006.2 - 0.0 - - - - - - -
27/03:30am 25.4 SW 9 13 1006.7 - 0.0 - - - - - - -
27/03:00am 25.6 SW 10 12 1006.8 - 0.0 - - - - - - -
27/02:30am 25.8 SSW 11 14 1006.7 - 0.0 - - - - - - -
27/02:00am 25.8 SW 11 15 1006.9 - 0.0 - - - - - - -
27/01:30am 25.9 SW 10 12 1006.9 - 0.0 - - - - - - -
27/01:00am 26.2 SW 10 13 1007.1 - 0.0 - - - - - - -
27/12:30am 26.3 SW 9 11 1007.5 - 0.0 - - - - - - -
27/12:00am 26.5 SW 14 19 1007.5 - 0.0 - - - - - - -
 
Date/Time
WST
Temp

°C
Wind Pressure Rain
since 9am
mm
Weather Cloud Vis
km
Sea
Height
m
Swell
Dir
 
Speed
knots
Gust
knots
hPa Trend Height
m
Period
s
Dir
26/11:30pm 26.7 SW 14 19 1007.7 - 0.0 - - - - - - -
26/11:00pm 26.9 SW 16 20 1007.7 - 0.0 - - - - - - -
26/10:30pm 27.1 SW 17 22 1007.8 - 0.0 - - - - - - -
26/10:00pm 27.4 SW 19 24 1007.7 - 0.0 - - - - - - -
26/09:30pm 27.9 SW 20 27 1007.3 - 0.0 - - - - - - -
26/09:00pm 28.6 SW 18 26 1006.9 - 0.0 - - - - - - -
26/08:30pm 28.6 WSW 16 22 1006.7 - 0.0 - - - - - - -
26/08:00pm 28.6 WSW 16 21 1006.3 - 0.0 - - - - - - -
26/07:30pm 28.9 WSW 17 22 1006.2 - 0.0 - - - - - - -
26/07:00pm 29.3 WSW 18 24 1005.8 - 0.0 - - - - - - -
26/06:30pm 29.7 W 15 22 1005.5 - 0.0 - - - - - - -
26/06:00pm 29.6 W 17 22 1005.1 - 0.0 - - - - - - -
26/05:30pm 30.2 W 18 24 1005.0 - 0.0 - - - - - - -
26/05:00pm 30.6 W 20 26 1005.1 - 0.0 - - - - - - -
26/04:30pm 30.9 W 21 26 1005.3 - 0.0 - - - - - - -
26/04:00pm 30.8 W 22 27 1005.4 - 0.0 - - - - - - -
26/03:30pm 30.7 WNW 22 27 1005.6 - 0.0 - - - - - - -
26/03:00pm 31.0 W 21 27 1005.8 - 0.0 - - - - - - -
26/02:30pm 32.5 WNW 23 29 1006.1 - 0.0 - - - - - - -
26/02:00pm 32.7 W 22 27 1006.3 - 0.0 - - - - - - -
26/01:30pm 32.0 WNW 22 26 1006.7 - 0.0 - - - - - - -
26/01:00pm 31.3 WNW 22 29 1007.1 - 0.0 - - - - - - -
26/12:30pm 32.0 WNW 22 26 1007.3 - 0.0 - - - - - - -
26/12:00pm 33.0 WSW 14 21 1007.7 - 0.0 - - - - - - -
26/11:30am 33.6 SW 10 14 1008.0 - 0.0 - - - - - - -
26/11:00am 33.2 SSW 9 13 1008.3 - 0.0 - - - - - - -
26/10:30am 32.2 SSW 9 12 1008.6 - 0.0 - - - - - - -
26/10:00am 31.5 SSW 10 13 1008.9 - 0.0 - - - - - - -
26/09:30am 30.8 SSW 11 14 1009.1 - 0.0 - - - - - - -
26/09:00am 29.6 SSW 11 15 1009.2 - 0.0 - - - - - - -
26/08:30am 29.0 SSW 12 14 1009.2 - 0.0 - - - - - - -
26/08:00am 27.5 SW 12 15 1009.1 - 0.0 - - - - - - -
26/07:30am 26.4 SW 12 15 1008.8 - 0.0 - - - - - - -
26/07:00am 26.0 SW 11 13 1008.7 - 0.0 - - - - - - -
26/06:30am 25.5 SW 10 13 1008.4 - 0.0 - - - - - - -
26/06:00am 25.5 SW 11 14 1008.0 - 0.0 - - - - - - -
26/05:30am 25.6 SW 10 13 1007.8 - 0.0 - - - - - - -
26/05:00am 25.7 SW 11 13 1007.5 - 0.0 - - - - - - -
26/04:30am 25.9 SSW 10 14 1007.6 - 0.0 - - - - - - -
26/04:00am 26.0 SW 10 13 1007.6 - 0.0 - - - - - - -
26/03:30am 26.3 SSW 13 15 1007.7 - 0.0 - - - - - - -
26/03:00am 26.3 SSW 11 14 1007.6 - 0.0 - - - - - - -
26/02:30am 26.3 SW 11 14 1007.7 - 0.0 - - - - - - -
26/02:00am 26.5 SW 13 16 1008.0 - 0.0 - - - - - - -
26/01:30am 26.6 SW 12 16 1008.3 - 0.0 - - - - - - -
26/01:00am 26.7 WSW 11 15 1008.3 - 0.0 - - - - - - -
26/12:30am 27.1 WSW 13 15 1008.5 - 0.0 - - - - - - -
26/12:00am 27.3 WSW 8 12 1008.6 - 0.0 - - - - - - -
 
Date/Time
WST
Temp

°C
Wind Pressure Rain
since 9am
mm
Weather Cloud Vis
km
Sea
Height
m
Swell
Dir
 
Speed
knots
Gust
knots
hPa Trend Height
m
Period
s
Dir
25/11:30pm 27.5 WSW 10 13 1008.9 - 0.0 - - - - - - -
25/11:00pm 27.7 WSW 9 13 1009.2 - 0.0 - - - - - - -
25/10:30pm 27.8 WSW 12 15 1008.9 - 0.0 - - - - - - -
25/10:00pm 27.7 WSW 10 13 1009.0 - 0.0 - - - - - - -
25/09:30pm 27.8 WSW 11 15 1008.8 - 0.0 - - - - - - -
25/09:00pm 27.8 WSW 12 16 1008.4 - 0.0 - - - - - - -
25/08:30pm 27.8 WSW 13 17 1008.2 - 0.0 - - - - - - -
25/08:00pm 27.9 WSW 14 19 1008.1 - 0.0 - - - - - - -
25/07:30pm 28.1 W 15 20 1007.8 - 0.0 - - - - - - -
25/07:00pm 28.3 W 17 25 1007.4 - 0.0 - - - - - - -
25/06:30pm 28.6 W 18 23 1007.2 - 0.0 - - - - - - -
25/06:00pm 29.0 W 20 25 1007.2 - 0.0 - - - - - - -
25/05:30pm 29.3 WNW 19 25 1007.1 - 0.0 - - - - - - -
25/05:00pm 29.6 WNW 20 24 1006.8 - 0.0 - - - - - - -
25/04:30pm 30.2 WNW 20 25 1006.7 - 0.0 - - - - - - -
25/04:00pm 30.3 WNW 21 27 1006.8 - 0.0 - - - - - - -
25/03:30pm 30.6 WNW 21 25 1006.7 - 0.0 - - - - - - -
25/03:00pm 31.0 WNW 20 25 1006.8 - 0.0 - - - - - - -
25/02:30pm 30.9 WNW 21 25 1007.1 - 0.0 - - - - - - -
25/02:00pm 31.4 WNW 20 26 1007.3 - 0.0 - - - - - - -
25/01:30pm 31.0 WNW 19 25 1007.4 - 0.0 - - - - - - -
25/01:00pm 31.4 WNW 18 22 1007.7 - 0.0 - - - - - - -
25/12:30pm 31.7 WNW 16 21 1008.0 - 0.0 - - - - - - -
25/12:00pm 31.4 WNW 17 20 1008.1 - 0.0 - - - - - - -
25/11:30am 31.7 WNW 15 19 1008.5 - 0.0 - - - - - - -
25/11:00am 32.3 WNW 13 16 1008.8 - 0.0 - - - - - - -
25/10:30am 31.8 WNW 10 15 1008.8 - 0.0 - - - - - - -

Other Formats:

Comma delimited format used in spreadsheet applications
http://www.bom.gov.au/fwo/IDW60701/IDW60701.95305.axf

JavaScript Object Notation format (JSON) in row-major order
http://www.bom.gov.au/fwo/IDW60701/IDW60701.95305.json